Time;durP1;ratioP1;P1;durP2;ratioP2;P2;SDS_P1;SDS_P2;PMS_P1;PMS_P2;Temp;Humidity;BMP_temperature;BMP_pressure;BME280_temperature;BME280_humidity;BME280_pressure;Samples;Min_cycle;Max_cycle;Signal;HPM_P1;HPM_P2
2022/10/16 00:02:13;;;;;;;52.65;30.27;;;;;;;;;;5036310;28;20087;-68
2022/10/16 00:04:38;;;;;;;47.00;28.92;;;;;;;;;;5040316;28;20033;-67
2022/10/16 00:07:03;;;;;;;47.22;28.65;;;;;;;;;;5039387;28;20148;-68
2022/10/16 00:09:29;;;;;;;46.58;27.23;;;;;;;;;;5040017;28;20025;-68
2022/10/16 00:11:54;;;;;;;42.20;25.13;;;;;;;;;;5040518;28;20033;-68
2022/10/16 00:14:19;;;;;;;46.60;28.02;;;;;;;;;;5038804;28;20059;-68
2022/10/16 00:16:45;;;;;;;40.83;24.23;;;;;;;;;;5040001;28;20037;-67
2022/10/16 00:19:11;;;;;;;42.30;25.65;;;;;;;;;;5039969;28;20025;-67
2022/10/16 00:21:37;;;;;;;37.45;24.42;;;;;;;;;;5039788;28;20954;-69
2022/10/16 00:24:08;;;;;;;35.30;22.60;;;;;;;;;;5042257;28;20033;-68
2022/10/16 00:26:33;;;;;;;35.25;22.38;;;;;;;;;;5041583;28;20124;-68
2022/10/16 00:28:59;;;;;;;33.75;22.42;;;;;;;;;;5042048;28;20027;-68
2022/10/16 00:31:24;;;;;;;31.75;21.58;;;;;;;;;;5041014;28;20029;-70
2022/10/16 00:33:50;;;;;;;28.83;20.70;;;;;;;;;;5041805;28;20101;-67
2022/10/16 00:36:17;;;;;;;33.42;22.73;;;;;;;;;;5038744;28;20392;-68
2022/10/16 00:38:42;;;;;;;35.55;22.83;;;;;;;;;;5035202;28;20029;-67
2022/10/16 00:41:10;;;;;;;33.08;21.83;;;;;;;;;;5040509;28;20021;-68
2022/10/16 00:43:43;;;;;;;36.00;23.33;;;;;;;;;;5041406;28;20174;-67
2022/10/16 00:46:19;;;;;;;31.80;21.35;;;;;;;;;;5042455;28;20491;-68
2022/10/16 00:49:00;;;;;;;29.35;21.02;;;;;;;;;;5041582;28;20040;-67
2022/10/16 00:51:29;;;;;;;28.63;20.55;;;;;;;;;;5042977;28;20024;-67
2022/10/16 00:53:55;;;;;;;30.13;20.88;;;;;;;;;;5040405;28;20104;-67
2022/10/16 00:56:20;;;;;;;34.58;21.15;;;;;;;;;;5039266;28;20043;-67
2022/10/16 00:58:46;;;;;;;29.92;20.70;;;;;;;;;;5040092;28;20024;-68
2022/10/16 01:01:11;;;;;;;34.38;21.42;;;;;;;;;;5038645;28;20043;-67
2022/10/16 01:03:36;;;;;;;31.33;20.15;;;;;;;;;;5036565;28;21031;-68
2022/10/16 01:06:02;;;;;;;30.10;21.08;;;;;;;;;;5039372;28;20038;-67
2022/10/16 01:08:32;;;;;;;31.13;20.42;;;;;;;;;;5040181;28;20032;-68
2022/10/16 01:11:02;;;;;;;32.65;22.17;;;;;;;;;;5040797;28;20021;-68
2022/10/16 01:13:31;;;;;;;27.33;19.15;;;;;;;;;;5038149;28;20143;-67
2022/10/16 01:15:57;;;;;;;28.80;19.40;;;;;;;;;;5038133;28;20123;-68
2022/10/16 01:18:43;;;;;;;29.27;19.35;;;;;;;;;;5040171;28;20044;-67
2022/10/16 01:21:10;;;;;;;27.02;18.65;;;;;;;;;;5037388;28;20551;-68
2022/10/16 01:23:51;;;;;;;25.58;17.95;;;;;;;;;;5039032;28;20026;-68
2022/10/16 01:26:19;;;;;;;26.02;17.95;;;;;;;;;;5039533;28;20040;-67
2022/10/16 01:28:44;;;;;;;28.77;18.05;;;;;;;;;;5040180;28;20037;-67
2022/10/16 01:31:11;;;;;;;25.58;18.65;;;;;;;;;;5035506;28;20112;-67
2022/10/16 01:33:47;;;;;;;27.90;18.10;;;;;;;;;;5038455;28;21056;-68
2022/10/16 01:36:15;;;;;;;25.85;17.88;;;;;;;;;;5040510;28;20030;-68
2022/10/16 01:38:41;;;;;;;24.40;17.90;;;;;;;;;;5040849;28;20025;-68
2022/10/16 01:41:09;;;;;;;22.30;16.92;;;;;;;;;;5039834;28;20039;-68
2022/10/16 01:43:40;;;;;;;23.77;17.20;;;;;;;;;;5039483;28;20024;-67
2022/10/16 01:46:07;;;;;;;30.00;18.08;;;;;;;;;;5038557;28;20110;-67
2022/10/16 01:48:32;;;;;;;27.40;17.98;;;;;;;;;;5040024;28;20021;-67
2022/10/16 01:51:06;;;;;;;27.20;18.30;;;;;;;;;;5036849;28;20090;-68
2022/10/16 01:53:32;;;;;;;28.30;18.27;;;;;;;;;;5039521;28;20067;-67
2022/10/16 01:55:58;;;;;;;25.77;17.10;;;;;;;;;;5037864;28;20143;-67
2022/10/16 01:58:25;;;;;;;21.77;13.85;;;;;;;;;;5035575;28;20099;-66
2022/10/16 02:00:51;;;;;;;22.00;13.82;;;;;;;;;;5035494;28;20017;-67
2022/10/16 02:03:18;;;;;;;19.88;14.18;;;;;;;;;;5036787;28;20041;-67
2022/10/16 02:05:48;;;;;;;22.33;13.82;;;;;;;;;;5037609;28;20697;-67
2022/10/16 02:08:14;;;;;;;17.35;12.35;;;;;;;;;;5039745;28;20577;-67
2022/10/16 02:10:39;;;;;;;21.23;12.93;;;;;;;;;;5038854;28;20022;-67
2022/10/16 02:13:19;;;;;;;19.35;12.77;;;;;;;;;;5038886;28;20033;-67
2022/10/16 02:15:45;;;;;;;16.33;11.50;;;;;;;;;;5038309;28;20064;-67
2022/10/16 02:18:10;;;;;;;19.15;11.55;;;;;;;;;;5037190;28;20025;-66
2022/10/16 02:20:40;;;;;;;14.75;11.75;;;;;;;;;;5034957;28;20038;-67
2022/10/16 02:23:09;;;;;;;16.08;11.55;;;;;;;;;;5040017;28;20029;-66
2022/10/16 02:25:39;;;;;;;15.93;11.48;;;;;;;;;;5039239;28;20020;-67
2022/10/16 02:28:12;;;;;;;16.95;11.60;;;;;;;;;;5039298;28;20029;-67
2022/10/16 02:30:40;;;;;;;14.15;10.27;;;;;;;;;;5038215;28;20039;-67
2022/10/16 02:33:09;;;;;;;16.10;10.98;;;;;;;;;;5038798;28;20107;-67
2022/10/16 02:35:34;;;;;;;17.10;10.35;;;;;;;;;;5039394;28;20025;-67
2022/10/16 02:38:00;;;;;;;13.35;10.43;;;;;;;;;;5037938;28;20742;-67
2022/10/16 02:40:26;;;;;;;10.95;9.63;;;;;;;;;;5037724;28;20491;-67
2022/10/16 02:42:52;;;;;;;13.68;9.57;;;;;;;;;;5039908;28;20032;-69
2022/10/16 02:45:18;;;;;;;14.70;10.30;;;;;;;;;;5035738;28;20029;-67
2022/10/16 02:47:43;;;;;;;11.40;9.70;;;;;;;;;;5037227;28;20080;-67
2022/10/16 02:50:09;;;;;;;10.55;8.60;;;;;;;;;;5036117;28;20116;-67
2022/10/16 02:52:34;;;;;;;11.38;8.88;;;;;;;;;;5037944;28;20032;-67
2022/10/16 02:54:59;;;;;;;11.80;9.13;;;;;;;;;;5036735;28;20033;-67
2022/10/16 02:57:24;;;;;;;11.90;8.70;;;;;;;;;;5038769;28;20035;-67
2022/10/16 02:59:50;;;;;;;12.30;9.52;;;;;;;;;;5039212;28;20031;-67
2022/10/16 03:02:15;;;;;;;11.27;9.15;;;;;;;;;;5036781;28;20123;-67
2022/10/16 03:04:40;;;;;;;11.18;9.18;;;;;;;;;;5036882;28;20039;-67
2022/10/16 03:07:05;;;;;;;14.05;9.57;;;;;;;;;;5037213;28;20043;-67
2022/10/16 03:09:31;;;;;;;13.23;9.93;;;;;;;;;;5032342;28;20745;-67
2022/10/16 03:11:56;;;;;;;12.82;9.75;;;;;;;;;;5033001;28;20052;-66
2022/10/16 03:14:21;;;;;;;13.90;9.43;;;;;;;;;;5035768;28;20057;-66
2022/10/16 03:16:46;;;;;;;10.70;8.98;;;;;;;;;;5037859;28;20491;-66
2022/10/16 03:19:12;;;;;;;13.00;9.32;;;;;;;;;;5045082;28;20068;-67
2022/10/16 03:21:37;;;;;;;10.57;8.63;;;;;;;;;;5041601;28;20487;-67
2022/10/16 03:24:02;;;;;;;11.90;7.90;;;;;;;;;;5043519;28;20040;-67
2022/10/16 03:26:28;;;;;;;10.05;7.65;;;;;;;;;;5043491;28;20032;-66
2022/10/16 03:28:53;;;;;;;8.65;7.68;;;;;;;;;;5045839;28;20439;-67
2022/10/16 03:31:18;;;;;;;7.97;6.80;;;;;;;;;;5041780;28;20121;-66
2022/10/16 03:33:43;;;;;;;8.85;7.18;;;;;;;;;;5045328;28;20120;-67
2022/10/16 03:36:09;;;;;;;8.57;7.72;;;;;;;;;;5041519;28;20476;-67
2022/10/16 03:38:34;;;;;;;9.68;7.75;;;;;;;;;;5045315;28;20427;-67
2022/10/16 03:40:59;;;;;;;8.18;7.18;;;;;;;;;;5045117;28;20033;-67
2022/10/16 03:43:24;;;;;;;9.90;8.45;;;;;;;;;;5044002;28;20428;-66
2022/10/16 03:45:51;;;;;;;9.35;7.72;;;;;;;;;;5043812;28;20480;-67
2022/10/16 03:48:16;;;;;;;15.63;9.40;;;;;;;;;;5040880;28;20025;-67
2022/10/16 03:50:42;;;;;;;16.25;10.38;;;;;;;;;;5042194;28;20026;-69
2022/10/16 03:53:07;;;;;;;11.50;8.30;;;;;;;;;;5043171;28;20465;-67
2022/10/16 03:55:32;;;;;;;10.05;8.05;;;;;;;;;;5044360;28;20036;-66
2022/10/16 03:57:57;;;;;;;11.05;9.60;;;;;;;;;;5042562;28;20032;-66
2022/10/16 04:00:23;;;;;;;11.55;8.60;;;;;;;;;;5041023;28;20029;-67
2022/10/16 04:02:48;;;;;;;12.45;9.30;;;;;;;;;;5042032;28;20078;-67
2022/10/16 04:05:13;;;;;;;11.30;9.20;;;;;;;;;;5044005;28;20145;-66
2022/10/16 04:07:38;;;;;;;10.52;8.23;;;;;;;;;;5041384;28;20483;-66
2022/10/16 04:10:04;;;;;;;10.50;7.28;;;;;;;;;;5044145;28;20068;-67
2022/10/16 04:12:29;;;;;;;11.10;8.35;;;;;;;;;;5043649;28;20030;-67
2022/10/16 04:14:55;;;;;;;10.30;8.38;;;;;;;;;;5043184;28;20609;-67
2022/10/16 04:17:20;;;;;;;12.63;9.90;;;;;;;;;;5041886;28;20052;-67
2022/10/16 04:19:45;;;;;;;12.95;9.52;;;;;;;;;;5045007;28;20063;-66
2022/10/16 04:22:11;;;;;;;15.27;11.23;;;;;;;;;;5043623;28;20033;-67
2022/10/16 04:24:36;;;;;;;15.90;10.45;;;;;;;;;;5045344;28;20025;-66
2022/10/16 04:27:01;;;;;;;14.52;10.18;;;;;;;;;;5042441;28;20020;-67
2022/10/16 04:29:26;;;;;;;12.52;9.38;;;;;;;;;;5043834;28;20068;-67
2022/10/16 04:31:52;;;;;;;12.98;9.75;;;;;;;;;;5042634;28;20527;-66
2022/10/16 04:34:17;;;;;;;13.68;9.98;;;;;;;;;;5043902;28;20037;-67
2022/10/16 04:36:42;;;;;;;14.55;10.27;;;;;;;;;;5041202;28;20025;-66
2022/10/16 04:39:08;;;;;;;15.43;10.75;;;;;;;;;;5050275;28;20024;-67
2022/10/16 04:41:33;;;;;;;15.45;9.68;;;;;;;;;;5042774;28;20614;-67
2022/10/16 04:43:58;;;;;;;16.27;10.07;;;;;;;;;;5044479;28;20028;-67
2022/10/16 04:46:24;;;;;;;15.65;10.18;;;;;;;;;;5041681;28;20044;-66
2022/10/16 04:48:49;;;;;;;15.35;10.35;;;;;;;;;;5043308;28;20028;-66
2022/10/16 04:51:14;;;;;;;14.07;9.73;;;;;;;;;;5042623;28;20365;-67
2022/10/16 04:53:39;;;;;;;13.70;9.45;;;;;;;;;;5040346;28;20029;-66
2022/10/16 04:56:05;;;;;;;12.85;9.25;;;;;;;;;;5041245;28;20055;-67
2022/10/16 04:58:30;;;;;;;11.55;8.70;;;;;;;;;;5040469;28;20033;-66
2022/10/16 05:00:55;;;;;;;11.75;8.65;;;;;;;;;;5043200;28;20396;-67
2022/10/16 05:03:20;;;;;;;10.70;9.13;;;;;;;;;;5039522;28;20463;-67
2022/10/16 05:05:46;;;;;;;9.45;7.63;;;;;;;;;;5041173;28;20029;-67
2022/10/16 05:08:12;;;;;;;9.68;7.63;;;;;;;;;;5037026;28;20036;-66
2022/10/16 05:10:37;;;;;;;9.35;8.38;;;;;;;;;;5042888;28;20112;-67
2022/10/16 05:13:03;;;;;;;12.50;9.90;;;;;;;;;;5039707;28;20025;-66
2022/10/16 05:15:28;;;;;;;11.27;9.48;;;;;;;;;;5038773;28;20045;-67
2022/10/16 05:17:54;;;;;;;15.00;11.30;;;;;;;;;;5038096;28;20037;-66
2022/10/16 05:20:19;;;;;;;11.63;9.93;;;;;;;;;;5039616;28;20114;-68
2022/10/16 05:22:45;;;;;;;10.90;8.95;;;;;;;;;;5042946;28;20360;-66
2022/10/16 05:25:10;;;;;;;10.32;8.40;;;;;;;;;;5041533;28;20083;-67
2022/10/16 05:27:35;;;;;;;9.70;8.38;;;;;;;;;;5039657;28;20029;-67
2022/10/16 05:30:00;;;;;;;10.93;7.43;;;;;;;;;;5040615;28;20600;-66
2022/10/16 05:32:25;;;;;;;11.02;8.35;;;;;;;;;;5038914;28;20694;-66
2022/10/16 05:34:51;;;;;;;9.20;8.23;;;;;;;;;;5038333;28;20048;-67
2022/10/16 05:37:16;;;;;;;11.10;9.00;;;;;;;;;;5038366;28;20082;-67
2022/10/16 05:39:41;;;;;;;11.05;8.75;;;;;;;;;;5033884;28;20052;-66
2022/10/16 05:42:07;;;;;;;10.95;9.32;;;;;;;;;;5034711;28;20147;-66
2022/10/16 05:44:32;;;;;;;8.98;8.07;;;;;;;;;;5038256;28;20029;-66
2022/10/16 05:46:57;;;;;;;11.65;9.07;;;;;;;;;;5036802;28;20028;-66
2022/10/16 05:49:23;;;;;;;19.55;13.07;;;;;;;;;;5038412;28;20115;-66
2022/10/16 05:51:48;;;;;;;18.90;13.02;;;;;;;;;;5037903;28;20025;-66
2022/10/16 05:54:13;;;;;;;22.05;15.02;;;;;;;;;;5035398;28;20032;-66
2022/10/16 05:56:38;;;;;;;32.05;18.85;;;;;;;;;;5039826;28;20040;-66
2022/10/16 05:59:04;;;;;;;38.53;21.85;;;;;;;;;;5040151;28;20024;-66
2022/10/16 06:01:30;;;;;;;30.67;22.20;;;;;;;;;;5038264;28;20021;-67
2022/10/16 06:03:55;;;;;;;36.05;24.98;;;;;;;;;;5040609;28;20025;-66
2022/10/16 06:06:22;;;;;;;36.50;23.90;;;;;;;;;;5038413;28;20079;-67
2022/10/16 06:08:48;;;;;;;30.30;22.15;;;;;;;;;;5037898;28;20024;-68
2022/10/16 06:11:15;;;;;;;37.03;26.02;;;;;;;;;;5036427;28;20033;-67
2022/10/16 06:13:42;;;;;;;36.17;24.60;;;;;;;;;;5038604;28;20145;-66
2022/10/16 06:16:10;;;;;;;33.35;25.58;;;;;;;;;;5038003;28;20049;-66
2022/10/16 06:18:35;;;;;;;34.15;24.13;;;;;;;;;;5038098;28;20024;-67
2022/10/16 06:21:06;;;;;;;31.70;24.60;;;;;;;;;;5038128;28;20029;-66
2022/10/16 06:23:31;;;;;;;33.40;26.05;;;;;;;;;;5039070;28;20082;-66
2022/10/16 06:26:04;;;;;;;40.03;29.90;;;;;;;;;;5043178;28;20088;-66
2022/10/16 06:28:29;;;;;;;49.88;35.50;;;;;;;;;;5037937;28;20021;-66
2022/10/16 06:31:01;;;;;;;56.35;37.75;;;;;;;;;;5038179;28;20036;-66
2022/10/16 06:33:26;;;;;;;62.50;40.75;;;;;;;;;;5037478;28;20108;-66
2022/10/16 06:35:52;;;;;;;64.95;38.97;;;;;;;;;;5023201;28;20044;-66
2022/10/16 06:38:17;;;;;;;83.00;39.58;;;;;;;;;;5040598;28;20132;-67
2022/10/16 06:40:42;;;;;;;77.43;39.83;;;;;;;;;;5037803;28;20021;-66
2022/10/16 06:43:09;;;;;;;68.55;39.67;;;;;;;;;;5038594;28;20137;-66
2022/10/16 06:45:34;;;;;;;78.28;39.33;;;;;;;;;;5036952;28;20069;-66
2022/10/16 06:47:59;;;;;;;72.78;38.17;;;;;;;;;;5037209;28;20033;-66
2022/10/16 06:50:24;;;;;;;80.28;39.20;;;;;;;;;;5035824;28;20036;-66
2022/10/16 06:52:49;;;;;;;114.00;43.47;;;;;;;;;;5042553;28;20031;-66
2022/10/16 06:55:16;;;;;;;76.53;39.25;;;;;;;;;;5041384;28;20069;-66
2022/10/16 06:57:42;;;;;;;132.50;42.42;;;;;;;;;;5041390;28;20041;-66
2022/10/16 07:00:07;;;;;;;91.28;38.88;;;;;;;;;;5040342;28;20035;-65
2022/10/16 07:02:32;;;;;;;52.65;36.47;;;;;;;;;;5040257;28;20029;-65
2022/10/16 07:04:58;;;;;;;64.82;40.10;;;;;;;;;;5041151;28;20116;-66
2022/10/16 07:07:24;;;;;;;43.58;36.00;;;;;;;;;;5041910;28;20766;-65
2022/10/16 07:09:50;;;;;;;47.80;38.45;;;;;;;;;;5040828;28;20121;-65
2022/10/16 07:12:15;;;;;;;59.45;39.70;;;;;;;;;;5041416;28;20445;-66
2022/10/16 07:14:40;;;;;;;114.03;38.78;;;;;;;;;;5037394;28;20144;-65
2022/10/16 07:17:05;;;;;;;112.07;39.13;;;;;;;;;;5037020;28;20893;-65
2022/10/16 07:19:31;;;;;;;64.65;37.00;;;;;;;;;;5042521;28;20072;-66
2022/10/16 07:21:56;;;;;;;57.65;38.40;;;;;;;;;;5040579;28;20025;-66
2022/10/16 07:24:22;;;;;;;68.35;39.72;;;;;;;;;;5039908;28;20494;-66
2022/10/16 07:26:48;;;;;;;50.60;39.00;;;;;;;;;;5041477;28;20037;-66
2022/10/16 07:29:17;;;;;;;83.13;44.25;;;;;;;;;;5039999;28;20575;-66
2022/10/16 07:31:43;;;;;;;58.08;40.50;;;;;;;;;;5041425;28;20040;-66
2022/10/16 07:34:09;;;;;;;49.75;38.00;;;;;;;;;;5042939;28;20021;-66
2022/10/16 07:36:34;;;;;;;52.42;39.05;;;;;;;;;;5042009;28;20067;-66
2022/10/16 07:38:59;;;;;;;49.03;40.08;;;;;;;;;;5040392;28;20056;-66
2022/10/16 07:41:25;;;;;;;52.35;41.03;;;;;;;;;;5042499;28;20033;-66
2022/10/16 07:43:51;;;;;;;79.35;39.97;;;;;;;;;;5037891;28;20021;-67
2022/10/16 07:46:17;;;;;;;81.18;40.42;;;;;;;;;;5039786;28;20032;-66
2022/10/16 07:48:45;;;;;;;66.40;38.00;;;;;;;;;;5041617;28;20472;-67
2022/10/16 07:51:11;;;;;;;62.53;39.63;;;;;;;;;;5043471;28;20017;-68
2022/10/16 07:53:36;;;;;;;49.75;40.28;;;;;;;;;;5042660;28;20039;-66
2022/10/16 07:56:02;;;;;;;72.32;41.28;;;;;;;;;;5039687;28;20087;-66
2022/10/16 07:58:28;;;;;;;51.42;38.65;;;;;;;;;;5043805;28;20156;-66
2022/10/16 08:00:53;;;;;;;51.60;36.75;;;;;;;;;;5041257;28;20491;-67
2022/10/16 08:03:19;;;;;;;45.97;34.92;;;;;;;;;;5042030;28;20020;-66
2022/10/16 08:05:44;;;;;;;45.40;37.17;;;;;;;;;;5038936;28;20765;-65
2022/10/16 08:08:12;;;;;;;64.57;40.47;;;;;;;;;;5042416;28;20025;-65
2022/10/16 08:10:37;;;;;;;71.13;40.90;;;;;;;;;;5038490;28;20037;-67
2022/10/16 08:13:03;;;;;;;82.38;40.70;;;;;;;;;;5037347;28;20699;-66
2022/10/16 08:15:28;;;;;;;81.15;39.67;;;;;;;;;;5038401;28;20071;-66
2022/10/16 08:17:56;;;;;;;63.97;40.65;;;;;;;;;;5043110;28;20039;-66
2022/10/16 08:20:21;;;;;;;47.35;37.63;;;;;;;;;;5041651;28;20029;-66
2022/10/16 08:22:47;;;;;;;44.67;37.10;;;;;;;;;;5041822;28;20032;-65
2022/10/16 08:25:12;;;;;;;47.67;37.13;;;;;;;;;;5042904;28;20572;-65
2022/10/16 08:27:37;;;;;;;51.13;40.05;;;;;;;;;;5041279;28;20029;-66
2022/10/16 08:30:02;;;;;;;45.58;35.28;;;;;;;;;;5040446;28;20056;-66
2022/10/16 08:32:28;;;;;;;48.03;37.47;;;;;;;;;;5038853;28;20879;-65
2022/10/16 08:34:53;;;;;;;64.00;39.03;;;;;;;;;;5048135;28;20563;-65
2022/10/16 08:37:18;;;;;;;71.13;36.30;;;;;;;;;;5040080;28;20024;-66
2022/10/16 08:39:43;;;;;;;73.93;37.97;;;;;;;;;;5037274;28;20805;-66
2022/10/16 08:42:15;;;;;;;65.55;38.78;;;;;;;;;;5036995;28;20233;-66
2022/10/16 08:44:40;;;;;;;52.22;38.40;;;;;;;;;;5039772;28;20131;-66
2022/10/16 08:47:09;;;;;;;64.03;38.72;;;;;;;;;;5042902;28;20026;-67
2022/10/16 08:49:35;;;;;;;60.88;40.90;;;;;;;;;;5040961;28;20031;-66
2022/10/16 08:52:00;;;;;;;53.75;39.33;;;;;;;;;;5040221;28;20033;-66
2022/10/16 08:54:25;;;;;;;58.38;39.35;;;;;;;;;;5039678;28;20033;-66
2022/10/16 08:56:51;;;;;;;48.03;39.35;;;;;;;;;;5041036;28;20025;-66
2022/10/16 08:59:16;;;;;;;61.97;38.55;;;;;;;;;;5040430;28;20025;-65
2022/10/16 09:01:43;;;;;;;46.85;37.47;;;;;;;;;;5039240;28;20038;-65
2022/10/16 09:04:18;;;;;;;49.42;38.45;;;;;;;;;;5041226;28;20692;-66
2022/10/16 09:06:50;;;;;;;50.97;38.13;;;;;;;;;;5034497;28;20029;-65
2022/10/16 09:09:31;;;;;;;51.25;40.45;;;;;;;;;;5037688;28;21218;-66
2022/10/16 09:12:02;;;;;;;48.75;40.08;;;;;;;;;;5038056;28;20036;-66
2022/10/16 09:14:28;;;;;;;52.22;39.97;;;;;;;;;;5035939;28;20096;-66
2022/10/16 09:17:03;;;;;;;47.03;38.10;;;;;;;;;;5038076;28;20289;-66
2022/10/16 09:19:28;;;;;;;;;;;;;;;;;;5040507;28;20020;-66
2022/10/16 09:21:53;;;;;;;47.85;35.90;;;;;;;;;;5038183;28;19912;-66
2022/10/16 09:24:24;;;;;;;48.90;37.67;;;;;;;;;;5040100;28;20066;-66
2022/10/16 09:26:50;;;;;;;47.63;38.42;;;;;;;;;;5038099;28;20052;-66
2022/10/16 09:29:16;;;;;;;41.95;34.30;;;;;;;;;;5038802;28;20158;-66
2022/10/16 09:31:41;;;;;;;43.50;35.08;;;;;;;;;;5038806;28;20025;-66
2022/10/16 09:34:14;;;;;;;40.05;31.65;;;;;;;;;;5036094;28;20552;-66
2022/10/16 09:36:41;;;;;;;45.15;34.28;;;;;;;;;;5033089;28;20028;-66
2022/10/16 09:39:08;;;;;;;48.42;37.47;;;;;;;;;;5036408;28;20020;-66
2022/10/16 09:41:41;;;;;;;47.95;36.15;;;;;;;;;;5032695;28;20527;-66
2022/10/16 09:44:25;;;;;;;49.03;37.75;;;;;;;;;;5035369;28;20087;-66
2022/10/16 09:47:00;;;;;;;47.13;34.83;;;;;;;;;;5038321;28;20029;-67
2022/10/16 09:49:26;;;;;;;49.28;36.35;;;;;;;;;;5038911;28;20149;-66
2022/10/16 09:52:03;;;;;;;52.78;39.05;;;;;;;;;;5038105;28;20056;-65
2022/10/16 09:54:28;;;;;;;55.03;40.67;;;;;;;;;;5038964;28;20028;-67
2022/10/16 09:57:03;;;;;;;49.67;37.05;;;;;;;;;;5037435;28;20037;-65
2022/10/16 09:59:30;;;;;;;;;;;;;;;;;;5038941;28;20037;-66
2022/10/16 10:01:58;;;;;;;49.13;36.00;;;;;;;;;;5038235;28;19916;-68
2022/10/16 10:04:25;;;;;;;50.20;37.50;;;;;;;;;;5038817;28;20489;-67
2022/10/16 10:06:54;;;;;;;49.28;38.20;;;;;;;;;;5037895;28;20024;-67
2022/10/16 10:09:22;;;;;;;47.63;38.42;;;;;;;;;;5037199;28;20033;-67
2022/10/16 10:11:50;;;;;;;48.05;37.20;;;;;;;;;;5038171;28;20090;-66
2022/10/16 10:14:18;;;;;;;53.42;39.45;;;;;;;;;;5038699;28;20501;-67
2022/10/16 10:16:43;;;;;;;50.58;39.08;;;;;;;;;;5038128;28;20024;-65
2022/10/16 10:19:16;;;;;;;46.55;37.90;;;;;;;;;;5037911;28;20624;-65
2022/10/16 10:21:41;;;;;;;45.78;37.92;;;;;;;;;;5035733;28;20776;-67
2022/10/16 10:24:10;;;;;;;48.95;36.42;;;;;;;;;;5037086;28;20052;-67
2022/10/16 10:26:35;;;;;;;49.33;37.10;;;;;;;;;;5035892;28;20025;-67
2022/10/16 10:29:01;;;;;;;51.92;39.65;;;;;;;;;;5038654;28;20479;-67
2022/10/16 10:31:34;;;;;;;53.35;40.33;;;;;;;;;;5037100;28;20095;-67
2022/10/16 10:34:05;;;;;;;52.20;39.78;;;;;;;;;;5035539;28;20053;-66
2022/10/16 10:36:38;;;;;;;54.58;42.70;;;;;;;;;;5036500;28;20123;-67
2022/10/16 10:39:12;;;;;;;57.28;43.20;;;;;;;;;;5038714;28;20168;-66
2022/10/16 10:41:37;;;;;;;51.65;38.95;;;;;;;;;;5039398;28;20017;-67
2022/10/16 10:44:05;;;;;;;57.33;41.13;;;;;;;;;;5035870;28;20397;-67
2022/10/16 10:46:51;;;;;;;55.55;43.38;;;;;;;;;;5036621;28;20578;-66
2022/10/16 10:49:16;;;;;;;49.33;39.45;;;;;;;;;;5037162;28;20137;-66
2022/10/16 10:51:59;;;;;;;49.63;38.85;;;;;;;;;;5035610;28;20028;-67
2022/10/16 10:54:24;;;;;;;55.47;42.38;;;;;;;;;;5036408;28;20016;-67
2022/10/16 10:56:56;;;;;;;48.50;37.75;;;;;;;;;;5035938;28;20035;-67
2022/10/16 10:59:41;;;;;;;54.03;42.28;;;;;;;;;;5038444;28;20115;-67
2022/10/16 11:02:06;;;;;;;;;;;;;;;;;;5037526;28;20033;-67
2022/10/16 11:04:50;;;;;;;52.95;41.13;;;;;;;;;;5038152;28;19913;-67
2022/10/16 11:07:18;;;;;;;51.65;40.78;;;;;;;;;;5040687;28;20025;-67
2022/10/16 11:09:53;;;;;;;54.30;39.95;;;;;;;;;;5037413;28;20027;-67
2022/10/16 11:12:24;;;;;;;56.28;41.47;;;;;;;;;;5036432;28;20475;-68
2022/10/16 11:14:49;;;;;;;52.35;42.72;;;;;;;;;;5033267;28;20110;-69
2022/10/16 11:17:29;;;;;;;51.33;40.95;;;;;;;;;;5033343;28;20021;-68
2022/10/16 11:20:15;;;;;;;52.15;41.00;;;;;;;;;;5035163;28;20032;-68
2022/10/16 11:22:40;;;;;;;;;;;;;;;;;;5035252;28;20040;-66
2022/10/16 11:25:11;;;;;;;51.42;38.38;;;;;;;;;;5033113;28;19944;-68
2022/10/16 11:27:55;;;;;;;54.67;42.55;;;;;;;;;;5037652;28;20041;-67
2022/10/16 11:30:23;;;;;;;51.15;40.00;;;;;;;;;;5032390;28;20111;-66
2022/10/16 11:32:52;;;;;;;50.35;39.78;;;;;;;;;;5035528;28;20028;-68
2022/10/16 11:35:22;;;;;;;48.45;37.40;;;;;;;;;;5040417;28;20036;-67
2022/10/16 11:37:48;;;;;;;51.38;39.72;;;;;;;;;;5029585;28;20124;-65
2022/10/16 11:40:20;;;;;;;49.20;38.90;;;;;;;;;;5041830;28;20943;-65
2022/10/16 11:42:48;;;;;;;42.35;36.15;;;;;;;;;;5041001;28;20108;-65
2022/10/16 11:45:13;;;;;;;44.28;34.78;;;;;;;;;;5046539;28;20135;-65
2022/10/16 11:47:44;;;;;;;45.75;36.70;;;;;;;;;;5044294;28;20472;-65
2022/10/16 11:50:25;;;;;;;48.10;38.40;;;;;;;;;;5041448;28;20025;-66
2022/10/16 11:52:50;;;;;;;48.92;38.40;;;;;;;;;;5036873;28;20125;-65
2022/10/16 11:55:20;;;;;;;51.95;39.50;;;;;;;;;;5039337;28;20872;-65
2022/10/16 11:57:51;;;;;;;49.78;39.25;;;;;;;;;;5040940;28;20036;-67
2022/10/16 12:00:31;;;;;;;49.70;39.13;;;;;;;;;;5041609;28;20026;-66
2022/10/16 12:03:05;;;;;;;52.08;42.28;;;;;;;;;;5039221;28;20511;-66
2022/10/16 12:05:37;;;;;;;56.10;41.45;;;;;;;;;;5040420;28;20044;-68
2022/10/16 12:08:02;;;;;;;54.05;41.38;;;;;;;;;;5039572;28;20464;-68
2022/10/16 12:10:28;;;;;;;54.97;43.63;;;;;;;;;;5042063;28;20027;-66
2022/10/16 12:12:54;;;;;;;56.85;45.05;;;;;;;;;;5040613;28;20505;-66
2022/10/16 12:15:26;;;;;;;51.35;41.22;;;;;;;;;;5039691;28;20468;-66
2022/10/16 12:17:52;;;;;;;54.17;40.30;;;;;;;;;;5035508;28;20094;-67
2022/10/16 12:20:19;;;;;;;51.80;41.92;;;;;;;;;;5039483;28;20533;-66
2022/10/16 12:22:58;;;;;;;57.63;45.10;;;;;;;;;;5038292;28;20264;-67
2022/10/16 12:25:26;;;;;;;60.47;45.15;;;;;;;;;;5035757;28;20054;-66
2022/10/16 12:27:56;;;;;;;58.03;44.88;;;;;;;;;;5038715;28;20025;-66
2022/10/16 12:30:23;;;;;;;57.30;43.22;;;;;;;;;;5041198;28;20036;-67
2022/10/16 12:32:56;;;;;;;55.55;44.03;;;;;;;;;;5041976;28;20414;-66
2022/10/16 12:35:23;;;;;;;58.05;43.50;;;;;;;;;;5041397;28;20064;-67
2022/10/16 12:37:49;;;;;;;55.58;43.45;;;;;;;;;;5040435;28;20589;-67
2022/10/16 12:40:30;;;;;;;57.20;43.60;;;;;;;;;;5041024;28;20508;-67
2022/10/16 12:42:56;;;;;;;52.85;41.80;;;;;;;;;;5037688;28;20017;-66
2022/10/16 12:45:24;;;;;;;57.85;46.05;;;;;;;;;;5039611;28;20039;-67
2022/10/16 12:47:51;;;;;;;57.88;43.45;;;;;;;;;;5041557;28;20107;-66
2022/10/16 12:50:23;;;;;;;54.60;43.35;;;;;;;;;;5040553;28;20760;-67
2022/10/16 12:52:49;;;;;;;52.97;42.03;;;;;;;;;;5041682;28;20020;-66
2022/10/16 12:55:16;;;;;;;55.20;43.80;;;;;;;;;;5039003;28;20033;-66
2022/10/16 12:58:00;;;;;;;53.08;42.10;;;;;;;;;;5035359;28;20051;-65
2022/10/16 13:00:31;;;;;;;54.22;43.03;;;;;;;;;;5039824;28;20032;-67
2022/10/16 13:03:12;;;;;;;58.08;45.30;;;;;;;;;;5041316;28;20021;-66
2022/10/16 13:05:40;;;;;;;52.58;43.08;;;;;;;;;;5043390;28;20021;-66
2022/10/16 13:08:20;;;;;;;58.90;45.17;;;;;;;;;;5040441;28;20025;-67
2022/10/16 13:10:51;;;;;;;54.00;42.58;;;;;;;;;;5042227;28;20131;-67
2022/10/16 13:13:34;;;;;;;53.60;42.75;;;;;;;;;;5040023;28;20032;-66
2022/10/16 13:16:15;;;;;;;53.30;41.35;;;;;;;;;;5041630;28;20039;-66
2022/10/16 13:18:45;;;;;;;54.70;44.55;;;;;;;;;;5041051;28;20425;-66
2022/10/16 13:21:26;;;;;;;56.83;44.80;;;;;;;;;;5038367;28;20035;-65
2022/10/16 13:23:51;;;;;;;53.15;42.58;;;;;;;;;;5039373;28;20037;-67
2022/10/16 13:26:19;;;;;;;51.65;43.65;;;;;;;;;;5038408;28;20035;-68
2022/10/16 13:28:45;;;;;;;55.42;45.13;;;;;;;;;;5036906;28;20542;-67
2022/10/16 13:31:15;;;;;;;56.03;44.33;;;;;;;;;;5038162;28;20331;-66
2022/10/16 13:33:41;;;;;;;53.58;43.17;;;;;;;;;;5037656;28;20035;-65
2022/10/16 13:36:18;;;;;;;54.65;44.70;;;;;;;;;;5040764;28;20087;-66
2022/10/16 13:38:43;;;;;;;54.72;44.03;;;;;;;;;;5039843;28;20610;-65
2022/10/16 13:41:16;;;;;;;55.53;43.72;;;;;;;;;;5038932;28;20064;-66
2022/10/16 13:43:43;;;;;;;53.53;43.53;;;;;;;;;;5039998;28;20130;-63
2022/10/16 13:46:14;;;;;;;49.05;40.97;;;;;;;;;;5039713;28;20033;-66
2022/10/16 13:48:39;;;;;;;57.55;45.08;;;;;;;;;;5036102;28;20029;-66
2022/10/16 13:51:05;;;;;;;55.10;44.05;;;;;;;;;;5036584;28;20671;-66
2022/10/16 13:53:34;;;;;;;53.80;44.47;;;;;;;;;;5039541;28;20242;-66
2022/10/16 13:56:03;;;;;;;54.42;44.25;;;;;;;;;;5040264;28;20036;-66
2022/10/16 13:58:28;;;;;;;51.42;42.33;;;;;;;;;;5039395;28;20025;-67
2022/10/16 14:01:01;;;;;;;52.50;43.75;;;;;;;;;;5038897;28;20040;-66
2022/10/16 14:03:27;;;;;;;53.90;43.45;;;;;;;;;;5038746;28;20948;-66
2022/10/16 14:05:54;;;;;;;52.85;45.03;;;;;;;;;;5038805;28;20611;-66
2022/10/16 14:08:20;;;;;;;55.35;45.95;;;;;;;;;;5037607;28;20495;-65
2022/10/16 14:10:49;;;;;;;52.05;43.78;;;;;;;;;;5036920;28;20025;-65
2022/10/16 14:13:17;;;;;;;54.67;45.63;;;;;;;;;;5040082;28;20383;-66
2022/10/16 14:15:46;;;;;;;54.80;43.88;;;;;;;;;;5039567;28;20067;-66
2022/10/16 14:18:17;;;;;;;46.70;41.28;;;;;;;;;;5035634;28;20090;-66
2022/10/16 14:20:42;;;;;;;51.03;40.08;;;;;;;;;;5026610;28;20056;-64
2022/10/16 14:23:31;;;;;;;50.45;40.80;;;;;;;;;;5036050;28;20495;-72
2022/10/16 14:26:25;;;;;;;54.85;44.53;;;;;;;;;;5032534;28;20034;-75